sensor_id;sensor_type;location;lat;lon;timestamp;P1;durP1;ratioP1;P2;durP2;ratioP2
59960;SDS011;55902;-37.980;-63.602;2023-08-06T00:01:14;10.45;;;3.55;;
59960;SDS011;55902;-37.980;-63.602;2023-08-06T00:03:41;14.65;;;4.10;;
59960;SDS011;55902;-37.980;-63.602;2023-08-06T00:06:08;9.68;;;3.40;;
59960;SDS011;55902;-37.980;-63.602;2023-08-06T00:08:35;19.17;;;4.30;;
59960;SDS011;55902;-37.980;-63.602;2023-08-06T00:11:02;15.90;;;4.00;;
59960;SDS011;55902;-37.980;-63.602;2023-08-06T00:13:29;14.15;;;3.58;;
59960;SDS011;55902;-37.980;-63.602;2023-08-06T00:16:07;11.40;;;3.22;;
59960;SDS011;55902;-37.980;-63.602;2023-08-06T00:18:35;11.00;;;3.58;;
59960;SDS011;55902;-37.980;-63.602;2023-08-06T00:21:02;12.38;;;3.05;;
59960;SDS011;55902;-37.980;-63.602;2023-08-06T00:23:29;10.23;;;3.72;;
59960;SDS011;55902;-37.980;-63.602;2023-08-06T00:32:19;18.00;;;4.60;;
59960;SDS011;55902;-37.980;-63.602;2023-08-06T00:34:46;9.63;;;4.10;;
59960;SDS011;55902;-37.980;-63.602;2023-08-06T00:37:16;12.63;;;4.28;;
59960;SDS011;55902;-37.980;-63.602;2023-08-06T00:39:43;13.38;;;3.65;;
59960;SDS011;55902;-37.980;-63.602;2023-08-06T00:42:11;8.65;;;3.28;;
59960;SDS011;55902;-37.980;-63.602;2023-08-06T00:44:38;10.48;;;3.80;;
59960;SDS011;55902;-37.980;-63.602;2023-08-06T00:47:09;11.73;;;3.70;;
59960;SDS011;55902;-37.980;-63.602;2023-08-06T00:49:36;7.53;;;3.00;;
59960;SDS011;55902;-37.980;-63.602;2023-08-06T00:52:04;8.48;;;3.55;;
59960;SDS011;55902;-37.980;-63.602;2023-08-06T00:54:35;12.85;;;3.55;;
59960;SDS011;55902;-37.980;-63.602;2023-08-06T00:57:03;10.50;;;3.88;;
59960;SDS011;55902;-37.980;-63.602;2023-08-06T00:59:33;12.02;;;4.57;;
59960;SDS011;55902;-37.980;-63.602;2023-08-06T01:02:00;16.55;;;4.15;;
59960;SDS011;55902;-37.980;-63.602;2023-08-06T01:04:28;12.93;;;3.92;;
59960;SDS011;55902;-37.980;-63.602;2023-08-06T01:12:34;10.80;;;3.25;;
59960;SDS011;55902;-37.980;-63.602;2023-08-06T01:15:19;8.32;;;3.40;;
59960;SDS011;55902;-37.980;-63.602;2023-08-06T01:17:50;13.27;;;3.17;;
59960;SDS011;55902;-37.980;-63.602;2023-08-06T01:20:18;10.77;;;3.30;;
59960;SDS011;55902;-37.980;-63.602;2023-08-06T01:22:45;11.38;;;3.35;;
59960;SDS011;55902;-37.980;-63.602;2023-08-06T01:25:13;13.70;;;2.88;;
59960;SDS011;55902;-37.980;-63.602;2023-08-06T01:27:49;9.70;;;3.00;;
59960;SDS011;55902;-37.980;-63.602;2023-08-06T01:32:46;12.00;;;3.20;;
59960;SDS011;55902;-37.980;-63.602;2023-08-06T01:35:19;9.73;;;3.13;;
59960;SDS011;55902;-37.980;-63.602;2023-08-06T01:41:10;9.70;;;3.70;;
59960;SDS011;55902;-37.980;-63.602;2023-08-06T01:43:37;21.45;;;4.07;;
59960;SDS011;55902;-37.980;-63.602;2023-08-06T01:46:04;16.08;;;4.00;;
59960;SDS011;55902;-37.980;-63.602;2023-08-06T01:48:31;13.30;;;3.60;;
59960;SDS011;55902;-37.980;-63.602;2023-08-06T01:51:04;14.38;;;3.22;;
59960;SDS011;55902;-37.980;-63.602;2023-08-06T01:53:32;17.02;;;3.50;;
59960;SDS011;55902;-37.980;-63.602;2023-08-06T01:55:59;15.20;;;3.30;;
59960;SDS011;55902;-37.980;-63.602;2023-08-06T01:58:27;11.73;;;2.97;;
59960;SDS011;55902;-37.980;-63.602;2023-08-06T02:00:57;13.73;;;3.15;;
59960;SDS011;55902;-37.980;-63.602;2023-08-06T02:03:24;8.10;;;2.88;;
59960;SDS011;55902;-37.980;-63.602;2023-08-06T02:05:51;11.20;;;2.90;;
59960;SDS011;55902;-37.980;-63.602;2023-08-06T02:08:18;12.77;;;2.97;;
59960;SDS011;55902;-37.980;-63.602;2023-08-06T02:10:45;9.95;;;3.40;;
59960;SDS011;55902;-37.980;-63.602;2023-08-06T02:13:12;11.88;;;3.40;;
59960;SDS011;55902;-37.980;-63.602;2023-08-06T02:15:45;9.75;;;3.08;;
59960;SDS011;55902;-37.980;-63.602;2023-08-06T02:18:16;11.57;;;2.90;;
59960;SDS011;55902;-37.980;-63.602;2023-08-06T02:20:43;10.68;;;2.92;;
59960;SDS011;55902;-37.980;-63.602;2023-08-06T02:23:21;10.50;;;2.80;;
59960;SDS011;55902;-37.980;-63.602;2023-08-06T02:25:48;12.70;;;3.10;;
59960;SDS011;55902;-37.980;-63.602;2023-08-06T02:28:22;11.85;;;3.00;;
59960;SDS011;55902;-37.980;-63.602;2023-08-06T02:30:49;11.93;;;3.17;;
59960;SDS011;55902;-37.980;-63.602;2023-08-06T02:33:19;10.30;;;2.80;;
59960;SDS011;55902;-37.980;-63.602;2023-08-06T02:35:46;10.65;;;2.90;;
59960;SDS011;55902;-37.980;-63.602;2023-08-06T02:38:17;17.85;;;3.47;;
59960;SDS011;55902;-37.980;-63.602;2023-08-06T02:40:47;10.07;;;3.22;;
59960;SDS011;55902;-37.980;-63.602;2023-08-06T02:43:14;8.45;;;2.80;;
59960;SDS011;55902;-37.980;-63.602;2023-08-06T02:45:41;8.50;;;2.70;;
59960;SDS011;55902;-37.980;-63.602;2023-08-06T02:48:08;11.88;;;3.35;;
59960;SDS011;55902;-37.980;-63.602;2023-08-06T02:50:39;10.80;;;2.95;;
59960;SDS011;55902;-37.980;-63.602;2023-08-06T02:53:10;11.88;;;3.03;;
59960;SDS011;55902;-37.980;-63.602;2023-08-06T02:55:37;9.77;;;2.92;;
59960;SDS011;55902;-37.980;-63.602;2023-08-06T02:58:10;6.57;;;2.60;;
59960;SDS011;55902;-37.980;-63.602;2023-08-06T03:00:37;10.27;;;2.85;;
59960;SDS011;55902;-37.980;-63.602;2023-08-06T03:03:04;5.35;;;2.70;;
59960;SDS011;55902;-37.980;-63.602;2023-08-06T03:05:31;10.18;;;3.65;;
59960;SDS011;55902;-37.980;-63.602;2023-08-06T03:07:58;8.95;;;3.30;;
59960;SDS011;55902;-37.980;-63.602;2023-08-06T03:10:25;11.57;;;2.95;;
59960;SDS011;55902;-37.980;-63.602;2023-08-06T03:12:52;8.57;;;2.88;;
59960;SDS011;55902;-37.980;-63.602;2023-08-06T03:15:19;6.93;;;2.80;;
59960;SDS011;55902;-37.980;-63.602;2023-08-06T03:17:46;13.88;;;3.22;;
59960;SDS011;55902;-37.980;-63.602;2023-08-06T03:20:13;11.02;;;3.20;;
59960;SDS011;55902;-37.980;-63.602;2023-08-06T03:22:40;9.57;;;3.10;;
59960;SDS011;55902;-37.980;-63.602;2023-08-06T03:25:08;16.67;;;3.63;;
59960;SDS011;55902;-37.980;-63.602;2023-08-06T03:27:34;8.65;;;2.80;;
59960;SDS011;55902;-37.980;-63.602;2023-08-06T03:30:02;10.95;;;2.90;;
59960;SDS011;55902;-37.980;-63.602;2023-08-06T03:32:29;6.57;;;2.80;;
59960;SDS011;55902;-37.980;-63.602;2023-08-06T03:34:56;8.18;;;3.25;;
59960;SDS011;55902;-37.980;-63.602;2023-08-06T03:37:23;6.05;;;2.80;;
59960;SDS011;55902;-37.980;-63.602;2023-08-06T03:39:50;9.48;;;3.17;;
59960;SDS011;55902;-37.980;-63.602;2023-08-06T03:42:17;7.47;;;3.00;;
59960;SDS011;55902;-37.980;-63.602;2023-08-06T03:44:44;10.13;;;3.05;;
59960;SDS011;55902;-37.980;-63.602;2023-08-06T03:47:11;12.82;;;3.05;;
59960;SDS011;55902;-37.980;-63.602;2023-08-06T03:49:38;16.65;;;3.00;;
59960;SDS011;55902;-37.980;-63.602;2023-08-06T03:52:05;10.05;;;3.00;;
59960;SDS011;55902;-37.980;-63.602;2023-08-06T03:54:32;12.02;;;3.50;;
59960;SDS011;55902;-37.980;-63.602;2023-08-06T03:56:59;7.63;;;3.33;;
59960;SDS011;55902;-37.980;-63.602;2023-08-06T03:59:26;9.25;;;2.78;;
59960;SDS011;55902;-37.980;-63.602;2023-08-06T04:01:53;9.10;;;3.00;;
59960;SDS011;55902;-37.980;-63.602;2023-08-06T04:04:20;8.43;;;2.90;;
59960;SDS011;55902;-37.980;-63.602;2023-08-06T04:06:47;6.82;;;2.90;;
59960;SDS011;55902;-37.980;-63.602;2023-08-06T04:09:14;11.43;;;2.92;;
59960;SDS011;55902;-37.980;-63.602;2023-08-06T04:11:41;9.88;;;2.92;;
59960;SDS011;55902;-37.980;-63.602;2023-08-06T04:14:08;12.80;;;2.90;;
59960;SDS011;55902;-37.980;-63.602;2023-08-06T04:16:35;8.32;;;3.10;;
59960;SDS011;55902;-37.980;-63.602;2023-08-06T04:19:03;5.65;;;2.90;;
59960;SDS011;55902;-37.980;-63.602;2023-08-06T04:21:30;7.93;;;2.97;;
59960;SDS011;55902;-37.980;-63.602;2023-08-06T04:23:57;5.57;;;3.03;;
59960;SDS011;55902;-37.980;-63.602;2023-08-06T04:26:24;10.75;;;3.17;;
59960;SDS011;55902;-37.980;-63.602;2023-08-06T04:28:51;12.73;;;2.95;;
59960;SDS011;55902;-37.980;-63.602;2023-08-06T04:31:18;9.02;;;3.03;;
59960;SDS011;55902;-37.980;-63.602;2023-08-06T04:33:45;8.10;;;3.05;;
59960;SDS011;55902;-37.980;-63.602;2023-08-06T04:36:12;12.23;;;3.20;;
59960;SDS011;55902;-37.980;-63.602;2023-08-06T04:38:42;8.75;;;2.75;;
59960;SDS011;55902;-37.980;-63.602;2023-08-06T04:41:10;8.05;;;2.97;;
59960;SDS011;55902;-37.980;-63.602;2023-08-06T04:43:37;7.05;;;2.97;;
59960;SDS011;55902;-37.980;-63.602;2023-08-06T04:46:05;10.35;;;2.95;;
59960;SDS011;55902;-37.980;-63.602;2023-08-06T04:48:32;9.20;;;2.90;;
59960;SDS011;55902;-37.980;-63.602;2023-08-06T04:50:59;8.57;;;2.80;;
59960;SDS011;55902;-37.980;-63.602;2023-08-06T04:53:26;6.88;;;3.00;;
59960;SDS011;55902;-37.980;-63.602;2023-08-06T04:55:56;7.13;;;2.72;;
59960;SDS011;55902;-37.980;-63.602;2023-08-06T04:58:23;4.85;;;2.70;;
59960;SDS011;55902;-37.980;-63.602;2023-08-06T05:00:50;7.15;;;3.30;;
59960;SDS011;55902;-37.980;-63.602;2023-08-06T05:03:19;6.00;;;2.80;;
59960;SDS011;55902;-37.980;-63.602;2023-08-06T05:05:46;6.22;;;2.78;;
59960;SDS011;55902;-37.980;-63.602;2023-08-06T05:08:14;8.77;;;2.75;;
59960;SDS011;55902;-37.980;-63.602;2023-08-06T05:10:43;6.18;;;2.90;;
59960;SDS011;55902;-37.980;-63.602;2023-08-06T05:13:10;6.78;;;3.03;;
59960;SDS011;55902;-37.980;-63.602;2023-08-06T05:15:37;7.43;;;3.15;;
59960;SDS011;55902;-37.980;-63.602;2023-08-06T05:18:08;6.43;;;2.95;;
59960;SDS011;55902;-37.980;-63.602;2023-08-06T05:20:39;6.72;;;2.88;;
59960;SDS011;55902;-37.980;-63.602;2023-08-06T05:23:07;8.98;;;2.70;;
59960;SDS011;55902;-37.980;-63.602;2023-08-06T05:25:34;6.63;;;3.22;;
59960;SDS011;55902;-37.980;-63.602;2023-08-06T05:28:02;7.78;;;2.90;;
59960;SDS011;55902;-37.980;-63.602;2023-08-06T05:30:29;8.05;;;2.80;;
59960;SDS011;55902;-37.980;-63.602;2023-08-06T05:32:56;7.43;;;3.15;;
59960;SDS011;55902;-37.980;-63.602;2023-08-06T05:35:23;6.10;;;2.83;;
59960;SDS011;55902;-37.980;-63.602;2023-08-06T05:37:50;8.38;;;3.05;;
59960;SDS011;55902;-37.980;-63.602;2023-08-06T05:40:17;6.05;;;3.05;;
59960;SDS011;55902;-37.980;-63.602;2023-08-06T05:42:44;6.63;;;2.90;;
59960;SDS011;55902;-37.980;-63.602;2023-08-06T05:48:32;5.95;;;3.30;;
59960;SDS011;55902;-37.980;-63.602;2023-08-06T05:50:59;8.20;;;3.63;;
59960;SDS011;55902;-37.980;-63.602;2023-08-06T05:53:27;9.23;;;3.30;;
59960;SDS011;55902;-37.980;-63.602;2023-08-06T05:55:55;5.65;;;3.10;;
59960;SDS011;55902;-37.980;-63.602;2023-08-06T05:58:22;7.22;;;3.08;;
59960;SDS011;55902;-37.980;-63.602;2023-08-06T06:00:51;8.75;;;3.63;;
59960;SDS011;55902;-37.980;-63.602;2023-08-06T06:03:19;6.30;;;3.50;;
59960;SDS011;55902;-37.980;-63.602;2023-08-06T06:05:46;6.95;;;3.65;;
59960;SDS011;55902;-37.980;-63.602;2023-08-06T06:08:13;7.13;;;3.40;;
59960;SDS011;55902;-37.980;-63.602;2023-08-06T06:10:41;4.05;;;3.20;;
59960;SDS011;55902;-37.980;-63.602;2023-08-06T06:13:08;9.38;;;3.70;;
59960;SDS011;55902;-37.980;-63.602;2023-08-06T06:15:35;7.45;;;3.83;;
59960;SDS011;55902;-37.980;-63.602;2023-08-06T06:18:02;7.70;;;3.60;;
59960;SDS011;55902;-37.980;-63.602;2023-08-06T06:20:31;7.60;;;3.70;;
59960;SDS011;55902;-37.980;-63.602;2023-08-06T06:22:59;7.50;;;3.92;;
59960;SDS011;55902;-37.980;-63.602;2023-08-06T06:25:26;13.45;;;3.50;;
59960;SDS011;55902;-37.980;-63.602;2023-08-06T06:27:53;9.25;;;3.42;;
59960;SDS011;55902;-37.980;-63.602;2023-08-06T06:30:20;9.45;;;3.75;;
59960;SDS011;55902;-37.980;-63.602;2023-08-06T06:32:47;9.23;;;3.47;;
59960;SDS011;55902;-37.980;-63.602;2023-08-06T06:35:14;8.30;;;3.50;;
59960;SDS011;55902;-37.980;-63.602;2023-08-06T06:37:41;12.68;;;3.50;;
59960;SDS011;55902;-37.980;-63.602;2023-08-06T06:40:08;8.48;;;3.30;;
59960;SDS011;55902;-37.980;-63.602;2023-08-06T06:42:35;10.50;;;3.67;;
59960;SDS011;55902;-37.980;-63.602;2023-08-06T06:45:02;8.38;;;3.50;;
59960;SDS011;55902;-37.980;-63.602;2023-08-06T06:47:29;7.25;;;3.63;;
59960;SDS011;55902;-37.980;-63.602;2023-08-06T06:49:56;13.55;;;3.80;;
59960;SDS011;55902;-37.980;-63.602;2023-08-06T06:52:23;9.77;;;3.45;;
59960;SDS011;55902;-37.980;-63.602;2023-08-06T06:54:50;8.73;;;3.90;;
59960;SDS011;55902;-37.980;-63.602;2023-08-06T06:57:17;8.20;;;4.13;;
59960;SDS011;55902;-37.980;-63.602;2023-08-06T06:59:44;6.95;;;3.88;;
59960;SDS011;55902;-37.980;-63.602;2023-08-06T07:02:11;19.60;;;4.70;;
59960;SDS011;55902;-37.980;-63.602;2023-08-06T07:04:38;15.65;;;5.07;;
59960;SDS011;55902;-37.980;-63.602;2023-08-06T07:07:05;12.55;;;4.30;;
59960;SDS011;55902;-37.980;-63.602;2023-08-06T07:09:32;14.15;;;4.50;;
59960;SDS011;55902;-37.980;-63.602;2023-08-06T07:11:59;9.95;;;4.43;;
59960;SDS011;55902;-37.980;-63.602;2023-08-06T07:14:28;18.42;;;4.80;;
59960;SDS011;55902;-37.980;-63.602;2023-08-06T07:16:55;12.40;;;5.10;;
59960;SDS011;55902;-37.980;-63.602;2023-08-06T07:19:23;15.32;;;5.85;;
59960;SDS011;55902;-37.980;-63.602;2023-08-06T07:21:53;16.65;;;5.35;;
59960;SDS011;55902;-37.980;-63.602;2023-08-06T07:24:21;12.02;;;4.93;;
59960;SDS011;55902;-37.980;-63.602;2023-08-06T07:26:51;18.33;;;5.82;;
59960;SDS011;55902;-37.980;-63.602;2023-08-06T07:29:18;13.00;;;4.88;;
59960;SDS011;55902;-37.980;-63.602;2023-08-06T07:31:47;12.75;;;5.07;;
59960;SDS011;55902;-37.980;-63.602;2023-08-06T07:34:15;12.77;;;4.75;;
59960;SDS011;55902;-37.980;-63.602;2023-08-06T07:36:45;9.27;;;4.30;;
59960;SDS011;55902;-37.980;-63.602;2023-08-06T07:39:12;7.45;;;4.07;;
59960;SDS011;55902;-37.980;-63.602;2023-08-06T07:41:43;10.43;;;4.00;;
59960;SDS011;55902;-37.980;-63.602;2023-08-06T07:44:11;8.75;;;3.53;;
59960;SDS011;55902;-37.980;-63.602;2023-08-06T07:46:38;9.50;;;3.50;;
59960;SDS011;55902;-37.980;-63.602;2023-08-06T07:49:05;7.90;;;3.47;;
59960;SDS011;55902;-37.980;-63.602;2023-08-06T07:51:32;12.38;;;4.40;;
59960;SDS011;55902;-37.980;-63.602;2023-08-06T07:53:59;8.23;;;3.55;;
59960;SDS011;55902;-37.980;-63.602;2023-08-06T07:56:26;4.90;;;3.15;;
59960;SDS011;55902;-37.980;-63.602;2023-08-06T07:58:53;5.88;;;3.35;;
59960;SDS011;55902;-37.980;-63.602;2023-08-06T08:01:20;7.97;;;3.30;;
59960;SDS011;55902;-37.980;-63.602;2023-08-06T08:03:47;4.38;;;3.10;;
59960;SDS011;55902;-37.980;-63.602;2023-08-06T08:06:17;7.18;;;3.25;;
59960;SDS011;55902;-37.980;-63.602;2023-08-06T08:08:44;5.45;;;3.20;;
59960;SDS011;55902;-37.980;-63.602;2023-08-06T08:11:11;6.40;;;2.90;;
59960;SDS011;55902;-37.980;-63.602;2023-08-06T08:13:38;5.07;;;3.10;;
59960;SDS011;55902;-37.980;-63.602;2023-08-06T08:16:05;6.55;;;2.97;;
59960;SDS011;55902;-37.980;-63.602;2023-08-06T08:18:32;6.75;;;3.22;;
59960;SDS011;55902;-37.980;-63.602;2023-08-06T08:20:59;5.00;;;3.10;;
59960;SDS011;55902;-37.980;-63.602;2023-08-06T08:23:26;6.72;;;3.30;;
59960;SDS011;55902;-37.980;-63.602;2023-08-06T08:25:56;6.15;;;3.03;;
59960;SDS011;55902;-37.980;-63.602;2023-08-06T08:28:24;5.32;;;3.20;;
59960;SDS011;55902;-37.980;-63.602;2023-08-06T08:30:54;5.78;;;3.10;;
59960;SDS011;55902;-37.980;-63.602;2023-08-06T08:33:21;5.57;;;2.80;;
59960;SDS011;55902;-37.980;-63.602;2023-08-06T08:35:49;4.38;;;2.80;;
59960;SDS011;55902;-37.980;-63.602;2023-08-06T08:38:16;7.15;;;3.25;;
59960;SDS011;55902;-37.980;-63.602;2023-08-06T08:40:45;5.13;;;3.08;;
59960;SDS011;55902;-37.980;-63.602;2023-08-06T08:43:15;6.78;;;3.28;;
59960;SDS011;55902;-37.980;-63.602;2023-08-06T08:45:43;6.90;;;3.05;;
59960;SDS011;55902;-37.980;-63.602;2023-08-06T08:48:15;5.85;;;3.10;;
59960;SDS011;55902;-37.980;-63.602;2023-08-06T08:50:44;5.55;;;3.20;;
59960;SDS011;55902;-37.980;-63.602;2023-08-06T08:53:15;8.90;;;3.47;;
59960;SDS011;55902;-37.980;-63.602;2023-08-06T08:55:43;7.63;;;3.10;;
59960;SDS011;55902;-37.980;-63.602;2023-08-06T09:01:34;5.97;;;4.20;;
59960;SDS011;55902;-37.980;-63.602;2023-08-06T09:04:04;7.65;;;4.20;;
59960;SDS011;55902;-37.980;-63.602;2023-08-06T09:06:33;7.82;;;4.25;;
59960;SDS011;55902;-37.980;-63.602;2023-08-06T09:19:46;9.20;;;3.72;;
59960;SDS011;55902;-37.980;-63.602;2023-08-06T09:22:15;8.25;;;3.65;;
59960;SDS011;55902;-37.980;-63.602;2023-08-06T09:24:42;8.48;;;3.83;;
59960;SDS011;55902;-37.980;-63.602;2023-08-06T09:27:13;5.78;;;3.42;;
59960;SDS011;55902;-37.980;-63.602;2023-08-06T09:29:41;6.00;;;3.60;;
59960;SDS011;55902;-37.980;-63.602;2023-08-06T09:32:13;7.70;;;3.60;;
59960;SDS011;55902;-37.980;-63.602;2023-08-06T09:34:43;8.68;;;4.25;;
59960;SDS011;55902;-37.980;-63.602;2023-08-06T09:37:11;6.97;;;3.80;;
59960;SDS011;55902;-37.980;-63.602;2023-08-06T09:39:39;6.90;;;3.60;;
59960;SDS011;55902;-37.980;-63.602;2023-08-06T09:42:07;7.85;;;3.60;;
59960;SDS011;55902;-37.980;-63.602;2023-08-06T09:44:34;5.68;;;3.28;;
59960;SDS011;55902;-37.980;-63.602;2023-08-06T09:47:02;5.95;;;3.40;;
59960;SDS011;55902;-37.980;-63.602;2023-08-06T09:49:50;6.70;;;3.60;;
59960;SDS011;55902;-37.980;-63.602;2023-08-06T09:52:17;5.57;;;3.38;;
59960;SDS011;55902;-37.980;-63.602;2023-08-06T09:54:45;6.65;;;3.45;;
59960;SDS011;55902;-37.980;-63.602;2023-08-06T09:57:14;5.22;;;3.67;;
59960;SDS011;55902;-37.980;-63.602;2023-08-06T09:59:41;7.30;;;3.92;;
59960;SDS011;55902;-37.980;-63.602;2023-08-06T10:02:13;9.88;;;4.00;;
59960;SDS011;55902;-37.980;-63.602;2023-08-06T10:04:40;7.63;;;3.50;;
59960;SDS011;55902;-37.980;-63.602;2023-08-06T10:07:10;7.22;;;3.40;;
59960;SDS011;55902;-37.980;-63.602;2023-08-06T10:09:38;4.78;;;3.40;;
59960;SDS011;55902;-37.980;-63.602;2023-08-06T10:12:05;9.00;;;3.40;;
59960;SDS011;55902;-37.980;-63.602;2023-08-06T10:14:33;4.85;;;3.50;;
59960;SDS011;55902;-37.980;-63.602;2023-08-06T10:17:02;4.78;;;3.30;;
59960;SDS011;55902;-37.980;-63.602;2023-08-06T10:19:30;5.43;;;3.22;;
59960;SDS011;55902;-37.980;-63.602;2023-08-06T10:27:30;3.45;;;3.15;;
59960;SDS011;55902;-37.980;-63.602;2023-08-06T10:30:26;5.28;;;2.90;;
59960;SDS011;55902;-37.980;-63.602;2023-08-06T10:32:58;5.07;;;3.10;;
59960;SDS011;55902;-37.980;-63.602;2023-08-06T10:38:19;6.65;;;3.28;;
59960;SDS011;55902;-37.980;-63.602;2023-08-06T10:43:39;6.05;;;3.00;;
59960;SDS011;55902;-37.980;-63.602;2023-08-06T10:46:09;5.82;;;3.10;;
59960;SDS011;55902;-37.980;-63.602;2023-08-06T10:48:41;4.65;;;3.15;;
59960;SDS011;55902;-37.980;-63.602;2023-08-06T10:51:12;5.93;;;3.15;;
59960;SDS011;55902;-37.980;-63.602;2023-08-06T10:53:49;3.50;;;3.13;;
59960;SDS011;55902;-37.980;-63.602;2023-08-06T10:56:18;5.53;;;3.42;;
59960;SDS011;55902;-37.980;-63.602;2023-08-06T11:02:10;5.55;;;3.10;;
59960;SDS011;55902;-37.980;-63.602;2023-08-06T11:04:38;5.35;;;2.90;;
59960;SDS011;55902;-37.980;-63.602;2023-08-06T11:07:06;7.20;;;2.97;;
59960;SDS011;55902;-37.980;-63.602;2023-08-06T11:09:33;5.22;;;3.20;;
59960;SDS011;55902;-37.980;-63.602;2023-08-06T11:12:00;5.07;;;3.13;;
59960;SDS011;55902;-37.980;-63.602;2023-08-06T11:14:30;5.18;;;2.80;;
59960;SDS011;55902;-37.980;-63.602;2023-08-06T11:16:57;7.57;;;3.20;;
59960;SDS011;55902;-37.980;-63.602;2023-08-06T11:19:24;5.65;;;3.00;;
59960;SDS011;55902;-37.980;-63.602;2023-08-06T11:21:52;6.00;;;3.30;;
59960;SDS011;55902;-37.980;-63.602;2023-08-06T11:24:20;4.22;;;3.00;;
59960;SDS011;55902;-37.980;-63.602;2023-08-06T11:26:49;4.93;;;2.80;;
59960;SDS011;55902;-37.980;-63.602;2023-08-06T11:29:16;7.05;;;2.78;;
59960;SDS011;55902;-37.980;-63.602;2023-08-06T11:31:43;5.60;;;3.30;;
59960;SDS011;55902;-37.980;-63.602;2023-08-06T11:34:10;6.82;;;3.95;;
59960;SDS011;55902;-37.980;-63.602;2023-08-06T11:36:39;4.35;;;3.00;;
59960;SDS011;55902;-37.980;-63.602;2023-08-06T11:39:07;4.80;;;3.00;;
59960;SDS011;55902;-37.980;-63.602;2023-08-06T11:41:38;5.25;;;3.30;;
59960;SDS011;55902;-37.980;-63.602;2023-08-06T11:44:05;5.53;;;2.90;;
59960;SDS011;55902;-37.980;-63.602;2023-08-06T11:46:55;4.00;;;3.10;;
59960;SDS011;55902;-37.980;-63.602;2023-08-06T11:49:41;4.47;;;2.90;;
59960;SDS011;55902;-37.980;-63.602;2023-08-06T11:52:20;5.78;;;2.70;;
59960;SDS011;55902;-37.980;-63.602;2023-08-06T11:57:33;3.17;;;2.63;;
59960;SDS011;55902;-37.980;-63.602;2023-08-06T12:00:02;3.10;;;2.65;;
59960;SDS011;55902;-37.980;-63.602;2023-08-06T12:02:33;5.35;;;2.85;;
59960;SDS011;55902;-37.980;-63.602;2023-08-06T12:07:43;6.22;;;2.90;;
59960;SDS011;55902;-37.980;-63.602;2023-08-06T12:10:15;3.85;;;2.88;;
59960;SDS011;55902;-37.980;-63.602;2023-08-06T12:12:42;5.22;;;3.00;;
59960;SDS011;55902;-37.980;-63.602;2023-08-06T12:15:09;6.43;;;3.08;;
59960;SDS011;55902;-37.980;-63.602;2023-08-06T12:17:37;3.65;;;3.00;;
59960;SDS011;55902;-37.980;-63.602;2023-08-06T12:20:05;8.30;;;4.15;;
59960;SDS011;55902;-37.980;-63.602;2023-08-06T12:22:33;5.70;;;4.45;;
59960;SDS011;55902;-37.980;-63.602;2023-08-06T12:25:04;3.53;;;2.80;;
59960;SDS011;55902;-37.980;-63.602;2023-08-06T12:27:36;3.72;;;2.40;;
59960;SDS011;55902;-37.980;-63.602;2023-08-06T12:30:05;3.50;;;2.83;;
59960;SDS011;55902;-37.980;-63.602;2023-08-06T12:32:33;4.28;;;2.40;;
59960;SDS011;55902;-37.980;-63.602;2023-08-06T12:35:00;4.93;;;2.40;;
59960;SDS011;55902;-37.980;-63.602;2023-08-06T12:37:28;4.88;;;2.50;;
59960;SDS011;55902;-37.980;-63.602;2023-08-06T12:39:55;2.85;;;2.20;;
59960;SDS011;55902;-37.980;-63.602;2023-08-06T12:42:22;5.93;;;2.90;;
59960;SDS011;55902;-37.980;-63.602;2023-08-06T12:44:49;5.25;;;3.33;;
59960;SDS011;55902;-37.980;-63.602;2023-08-06T12:47:17;3.97;;;2.40;;
59960;SDS011;55902;-37.980;-63.602;2023-08-06T12:49:47;4.38;;;1.90;;
59960;SDS011;55902;-37.980;-63.602;2023-08-06T12:52:15;3.40;;;2.20;;
59960;SDS011;55902;-37.980;-63.602;2023-08-06T12:54:45;5.82;;;2.20;;
59960;SDS011;55902;-37.980;-63.602;2023-08-06T12:57:12;4.20;;;2.42;;
59960;SDS011;55902;-37.980;-63.602;2023-08-06T12:59:39;5.45;;;2.78;;
59960;SDS011;55902;-37.980;-63.602;2023-08-06T13:02:06;2.67;;;2.20;;
59960;SDS011;55902;-37.980;-63.602;2023-08-06T13:04:33;2.50;;;2.30;;
59960;SDS011;55902;-37.980;-63.602;2023-08-06T13:07:00;4.40;;;2.70;;
59960;SDS011;55902;-37.980;-63.602;2023-08-06T13:09:27;3.55;;;2.40;;
59960;SDS011;55902;-37.980;-63.602;2023-08-06T13:11:55;3.60;;;2.40;;
59960;SDS011;55902;-37.980;-63.602;2023-08-06T13:14:22;2.80;;;2.33;;
59960;SDS011;55902;-37.980;-63.602;2023-08-06T13:16:49;6.05;;;2.90;;
59960;SDS011;55902;-37.980;-63.602;2023-08-06T13:19:18;4.10;;;2.50;;
59960;SDS011;55902;-37.980;-63.602;2023-08-06T13:24:19;2.90;;;2.58;;
59960;SDS011;55902;-37.980;-63.602;2023-08-06T13:26:46;3.65;;;2.45;;
59960;SDS011;55902;-37.980;-63.602;2023-08-06T13:29:13;5.55;;;2.80;;
59960;SDS011;55902;-37.980;-63.602;2023-08-06T13:31:40;4.07;;;3.05;;
59960;SDS011;55902;-37.980;-63.602;2023-08-06T13:34:06;2.92;;;2.30;;
59960;SDS011;55902;-37.980;-63.602;2023-08-06T13:36:34;3.88;;;2.80;;
59960;SDS011;55902;-37.980;-63.602;2023-08-06T13:39:04;2.67;;;2.35;;
59960;SDS011;55902;-37.980;-63.602;2023-08-06T13:41:31;4.03;;;2.70;;
59960;SDS011;55902;-37.980;-63.602;2023-08-06T13:44:03;3.67;;;2.40;;
59960;SDS011;55902;-37.980;-63.602;2023-08-06T13:46:30;3.67;;;2.50;;
59960;SDS011;55902;-37.980;-63.602;2023-08-06T13:48:57;3.05;;;2.33;;
59960;SDS011;55902;-37.980;-63.602;2023-08-06T14:01:29;3.92;;;2.30;;
59960;SDS011;55902;-37.980;-63.602;2023-08-06T14:03:56;3.55;;;2.28;;
59960;SDS011;55902;-37.980;-63.602;2023-08-06T14:06:23;3.47;;;2.25;;
59960;SDS011;55902;-37.980;-63.602;2023-08-06T14:08:50;4.22;;;2.35;;
59960;SDS011;55902;-37.980;-63.602;2023-08-06T14:11:21;2.63;;;2.20;;
59960;SDS011;55902;-37.980;-63.602;2023-08-06T14:13:48;5.13;;;2.20;;
59960;SDS011;55902;-37.980;-63.602;2023-08-06T14:16:15;3.47;;;1.90;;
59960;SDS011;55902;-37.980;-63.602;2023-08-06T14:18:42;4.53;;;2.10;;
59960;SDS011;55902;-37.980;-63.602;2023-08-06T14:21:09;3.95;;;2.00;;
59960;SDS011;55902;-37.980;-63.602;2023-08-06T14:23:36;2.47;;;2.08;;
59960;SDS011;55902;-37.980;-63.602;2023-08-06T14:26:03;3.90;;;2.05;;
59960;SDS011;55902;-37.980;-63.602;2023-08-06T14:28:30;3.28;;;1.88;;
59960;SDS011;55902;-37.980;-63.602;2023-08-06T14:30:57;4.28;;;2.05;;
59960;SDS011;55902;-37.980;-63.602;2023-08-06T14:33:24;2.20;;;1.70;;
59960;SDS011;55902;-37.980;-63.602;2023-08-06T14:35:51;2.55;;;1.83;;
59960;SDS011;55902;-37.980;-63.602;2023-08-06T14:38:18;3.63;;;2.00;;
59960;SDS011;55902;-37.980;-63.602;2023-08-06T14:40:45;2.20;;;1.90;;
59960;SDS011;55902;-37.980;-63.602;2023-08-06T14:46:52;4.88;;;2.00;;
59960;SDS011;55902;-37.980;-63.602;2023-08-06T14:49:19;2.35;;;2.00;;
59960;SDS011;55902;-37.980;-63.602;2023-08-06T14:51:46;2.80;;;2.00;;
59960;SDS011;55902;-37.980;-63.602;2023-08-06T14:54:13;4.63;;;2.00;;
59960;SDS011;55902;-37.980;-63.602;2023-08-06T14:56:40;3.33;;;2.17;;
59960;SDS011;55902;-37.980;-63.602;2023-08-06T14:59:07;5.97;;;2.72;;
59960;SDS011;55902;-37.980;-63.602;2023-08-06T15:01:35;6.38;;;2.20;;
59960;SDS011;55902;-37.980;-63.602;2023-08-06T15:04:05;3.92;;;2.17;;
59960;SDS011;55902;-37.980;-63.602;2023-08-06T15:06:32;5.15;;;2.10;;
59960;SDS011;55902;-37.980;-63.602;2023-08-06T15:08:59;5.43;;;2.15;;
59960;SDS011;55902;-37.980;-63.602;2023-08-06T15:11:26;3.72;;;1.90;;
59960;SDS011;55902;-37.980;-63.602;2023-08-06T15:13:54;2.72;;;2.10;;
59960;SDS011;55902;-37.980;-63.602;2023-08-06T15:16:21;3.95;;;1.90;;
59960;SDS011;55902;-37.980;-63.602;2023-08-06T15:18:48;2.22;;;1.77;;
59960;SDS011;55902;-37.980;-63.602;2023-08-06T15:21:14;2.22;;;1.88;;
59960;SDS011;55902;-37.980;-63.602;2023-08-06T15:23:42;4.63;;;1.98;;